Time;durP1;ratioP1;P1;durP2;ratioP2;P2;SDS_P1;SDS_P2;PMS_P1;PMS_P2;Temp;Humidity;BMP_temperature;BMP_pressure;BME280_temperature;BME280_humidity;BME280_pressure;Samples;Min_cycle;Max_cycle;Signal;HPM_P1;HPM_P2
2023/07/18 00:00:37;;;;;;;;;;;;;;;;;;5151938;27;19943;-70
2023/07/18 00:03:03;;;;;;;;;;;;;;;;;;5152281;27;19908;-70
2023/07/18 00:05:29;;;;;;;;;;;;;;;;;;5152108;27;19915;-70
2023/07/18 00:07:55;;;;;;;;;;;;;;;;;;5151757;27;19964;-71
2023/07/18 00:12:14;;;;;;;;;;;;;;;;;;5092135;27;19919;-70
2023/07/18 00:14:40;;;;;;;;;;;;;;;;;;5091170;28;19920;-69
2023/07/18 00:17:06;;;;;;;;;;;;;;;;;;5091355;28;19912;-69
2023/07/18 00:19:33;;;;;;;;;;;;;;;;;;5091312;28;19962;-69
2023/07/18 00:21:59;;;;;;;;;;;;;;;;;;5090879;28;19914;-69
2023/07/18 00:25:55;;;;;;;;;;;;;;;;;;5111948;27;19912;-70
2023/07/18 00:28:21;;;;;;;;;;;;;;;;;;5111378;28;20457;-70
2023/07/18 00:30:47;;;;;;;;;;;;;;;;;;5111740;28;20011;-70
2023/07/18 00:33:13;;;;;;;;;;;;;;;;;;5111709;28;20315;-70
2023/07/18 00:35:40;;;;;;;;;;;;;;;;;;5111240;28;19911;-70
2023/07/18 00:38:06;;;;;;;;;;;;;;;;;;5111600;28;19947;-70
2023/07/18 00:40:33;;;;;;;;;;;;;;;;;;5111528;28;19994;-70
2023/07/18 00:44:35;;;;;;;;;;;;;;;;;;5112354;27;19916;-69
2023/07/18 00:47:01;;;;;;;;;;;;;;;;;;5110395;28;20372;-69
2023/07/18 00:49:29;;;;;;;;;;;;;;;;;;5111414;28;19934;-70
2023/07/18 00:51:55;;;;;;;;;;;;;;;;;;5111646;28;19916;-69
2023/07/18 00:56:44;;;;;;;;;;;;;;;;;;5152924;27;19912;-69
2023/07/18 00:59:10;;;;;;;;;;;;;;;;;;5153010;27;19917;-69
2023/07/18 01:01:36;;;;;;;;;;;;;;;;;;5153072;27;20355;-69
2023/07/18 01:04:02;;;;;;;;;;;;;;;;;;5152470;27;19950;-69
2023/07/18 01:06:28;;;;;;;;;;;;;;;;;;5152982;27;19948;-69
2023/07/18 01:08:54;;;;;;;;;;;;;;;;;;5153059;27;19951;-69
2023/07/18 01:11:21;;;;;;;;;;;;;;;;;;5152333;27;20401;-69
2023/07/18 01:13:47;;;;;;;;;;;;;;;;;;5152616;27;19937;-70
2023/07/18 01:16:15;;;;;;;;;;;;;;;;;;5152903;27;20370;-70
2023/07/18 01:18:41;;;;;;;;;;;;;;;;;;5152251;27;19919;-69
2023/07/18 01:21:07;;;;;;;;;;;;;;;;;;5152505;27;19908;-70
2023/07/18 01:23:33;;;;;;;;;;;;;;;;;;5152821;27;19911;-69
2023/07/18 01:25:59;;;;;;;;;;;;;;;;;;5152082;27;19911;-69
2023/07/18 01:28:25;;;;;;;;;;;;;;;;;;5152361;27;19990;-70
2023/07/18 01:30:51;;;;;;;;;;;;;;;;;;5152365;27;19918;-70
2023/07/18 01:33:17;;;;;;;;;;;;;;;;;;5151915;27;19908;-70
2023/07/18 01:35:43;;;;;;;;;;;;;;;;;;5152311;27;19916;-71
2023/07/18 01:38:09;;;;;;;;;;;;;;;;;;5152481;27;19908;-70
2023/07/18 01:40:35;;;;;;;;;;;;;;;;;;5151739;27;19907;-70
2023/07/18 01:43:01;;;;;;;;;;;;;;;;;;5152112;27;20393;-70
2023/07/18 01:45:30;;;;;;;;;;;;;;;;;;5152210;27;20419;-71
2023/07/18 01:47:56;;;;;;;;;;;;;;;;;;5152100;27;19907;-71
2023/07/18 01:50:22;;;;;;;;;;;;;;;;;;5152007;27;19912;-72
2023/07/18 01:52:48;;;;;;;;;;;;;;;;;;5151608;27;19929;-71
2023/07/18 01:55:14;;;;;;;;;;;;;;;;;;5151800;27;19931;-71
2023/07/18 02:00:32;;;;;;;;;;;;;;;;;;5152829;27;20029;-70
2023/07/18 02:02:58;;;;;;;;;;;;;;;;;;5152996;27;20286;-71
2023/07/18 02:05:24;;;;;;;;;;;;;;;;;;5152887;27;19908;-70
2023/07/18 02:07:50;;;;;;;;;;;;;;;;;;5152425;27;19998;-69
2023/07/18 02:10:19;;;;;;;;;;;;;;;;;;5152947;27;19907;-70
2023/07/18 02:12:45;;;;;;;;;;;;;;;;;;5153186;27;20360;-69
2023/07/18 02:15:13;;;;;;;;;;;;;;;;;;5152391;27;19918;-70
2023/07/18 02:17:51;;;;;;;;;;;;;;;;;;5112562;27;19918;-70
2023/07/18 02:21:34;;;;;;;;;;;;;;;;;;5091376;27;19916;-70
2023/07/18 02:27:32;;;;;;;;;;;;;;;;;;5111974;27;20261;-69
2023/07/18 02:30:00;;;;;;;;;;;;;;;;;;5111938;28;20276;-69
2023/07/18 02:33:29;;;;;;;;;;;;;;;;;;5091934;27;19920;-69
2023/07/18 02:35:55;;;;;;;;;;;;;;;;;;5091028;28;20003;-70
2023/07/18 02:38:21;;;;;;;;;;;;;;;;;;5091263;28;19913;-70
2023/07/18 02:40:47;;;;;;;;;;;;;;;;;;5091211;28;20403;-70
2023/07/18 02:45:27;;;;;;;;;;;;;;;;;;5174331;27;19919;-70
2023/07/18 02:47:54;;;;;;;;;;;;;;;;;;5155243;27;19918;-70
2023/07/18 02:52:12;;;;;;;;;;;;;;;;;;5091451;27;20006;-70
2023/07/18 02:54:38;;;;;;;;;;;;;;;;;;5091932;28;20433;-69
2023/07/18 02:57:04;;;;;;;;;;;;;;;;;;5090943;28;19912;-70
2023/07/18 03:00:45;;;;;;;;;;;;;;;;;;5111987;27;19916;-69
2023/07/18 03:03:12;;;;;;;;;;;;;;;;;;5111405;28;19912;-70
2023/07/18 03:08:44;;;;;;;;;;;;;;;;;;5111898;27;19923;-70
2023/07/18 03:11:10;;;;;;;;;;;;;;;;;;5111423;28;20007;-70
2023/07/18 03:15:04;;;;;;;;;;;;;;;;;;5112206;27;19912;-70
2023/07/18 03:17:30;;;;;;;;;;;;;;;;;;5111394;28;20287;-70
2023/07/18 03:20:31;;;;;;;;;;;;;;;;;;5091417;27;19912;-70
2023/07/18 03:22:56;;;;;;;;;;;;;;;;;;5091364;28;20442;-70
2023/07/18 03:25:22;;;;;;;;;;;;;;;;;;5090904;28;19912;-70
2023/07/18 03:27:48;;;;;;;;;;;;;;;;;;5091280;28;19912;-69
2023/07/18 03:30:14;;;;;;;;;;;;;;;;;;5091279;28;19915;-69
2023/07/18 03:34:54;;;;;;;;;;;;;;;;;;5111967;27;20291;-70
2023/07/18 03:37:20;;;;;;;;;;;;;;;;;;5112057;28;19918;-70
2023/07/18 03:39:46;;;;;;;;;;;;;;;;;;5111265;28;19915;-70
2023/07/18 03:42:11;;;;;;;;;;;;;;;;;;5111656;28;19939;-70
2023/07/18 03:44:37;;;;;;;;;;;;;;;;;;5111660;28;19908;-70
2023/07/18 03:47:03;;;;;;;;;;;;;;;;;;5111182;28;19957;-70
2023/07/18 03:50:25;;;;;;;;;;;;;;;;;;5091507;27;19919;-70
2023/07/18 03:52:51;;;;;;;;;;;;;;;;;;5091094;28;20003;-70
2023/07/18 03:56:16;;;;;;;;;;;;;;;;;;5091637;27;19913;-70
2023/07/18 04:01:03;;;;;;;;;;;;;;;;;;5111412;27;19916;-70
2023/07/18 04:03:29;;;;;;;;;;;;;;;;;;5111772;28;20003;-69
2023/07/18 04:05:55;;;;;;;;;;;;;;;;;;5111615;28;19908;-70
2023/07/18 04:08:20;;;;;;;;;;;;;;;;;;5111663;28;19908;-70
2023/07/18 04:10:46;;;;;;;;;;;;;;;;;;5111622;28;20284;-70
2023/07/18 04:13:12;;;;;;;;;;;;;;;;;;5111234;28;19912;-70
2023/07/18 04:15:38;;;;;;;;;;;;;;;;;;5111481;28;19991;-69
2023/07/18 04:18:04;;;;;;;;;;;;;;;;;;5111772;28;19908;-70
2023/07/18 04:20:30;;;;;;;;;;;;;;;;;;5109652;28;20018;-70
2023/07/18 04:22:57;;;;;;;;;;;;;;;;;;5111326;28;19908;-70
2023/07/18 04:25:23;;;;;;;;;;;;;;;;;;5111329;28;20138;-70
2023/07/18 04:27:49;;;;;;;;;;;;;;;;;;5110879;28;19957;-70
2023/07/18 04:30:15;;;;;;;;;;;;;;;;;;5111281;28;19908;-70
2023/07/18 04:33:13;;;;;;;;;;;;;;;;;;5112319;27;20378;-70
2023/07/18 04:38:45;;;;;;;;;;;;;;;;;;5091423;27;19923;-69
2023/07/18 04:41:11;;;;;;;;;;;;;;;;;;5091012;28;20010;-69
2023/07/18 04:43:37;;;;;;;;;;;;;;;;;;5091282;28;19908;-70
2023/07/18 04:46:03;;;;;;;;;;;;;;;;;;5091538;28;19908;-71
2023/07/18 04:48:29;;;;;;;;;;;;;;;;;;5090832;28;19912;-70
2023/07/18 04:52:00;;;;;;;;;;;;;;;;;;5112430;27;19938;-69
2023/07/18 04:54:26;;;;;;;;;;;;;;;;;;5112216;28;20435;-69
2023/07/18 04:56:53;;;;;;;;;;;;;;;;;;5111199;28;19934;-69
2023/07/18 05:01:38;;;;;;;;;;;;;;;;;;5091841;27;19913;-69
2023/07/18 05:04:04;;;;;;;;;;;;;;;;;;5090920;28;20485;-69
2023/07/18 05:08:26;;;;;;;;;;;;;;;;;;5111779;27;19916;-69
2023/07/18 05:10:52;;;;;;;;;;;;;;;;;;5111413;28;19958;-69
2023/07/18 05:13:18;;;;;;;;;;;;;;;;;;5111884;28;19911;-70
2023/07/18 05:17:38;;;;;;;;;;;;;;;;;;5111505;27;19916;-69
2023/07/18 05:20:04;;;;;;;;;;;;;;;;;;5111870;28;20014;-69
2023/07/18 05:22:30;;;;;;;;;;;;;;;;;;5112075;28;19914;-69
2023/07/18 05:24:56;;;;;;;;;;;;;;;;;;5111317;28;20328;-69
2023/07/18 05:27:22;;;;;;;;;;;;;;;;;;5112149;28;20253;-69
2023/07/18 05:29:48;;;;;;;;;;;;;;;;;;5111543;28;20363;-70
2023/07/18 05:32:14;;;;;;;;;;;;;;;;;;5111142;28;19936;-70
2023/07/18 05:34:40;;;;;;;;;;;;;;;;;;5111480;28;19953;-70
2023/07/18 05:37:06;;;;;;;;;;;;;;;;;;5110103;28;20019;-70
2023/07/18 05:39:32;;;;;;;;;;;;;;;;;;5111077;28;19915;-70
2023/07/18 05:41:58;;;;;;;;;;;;;;;;;;5111338;28;19912;-69
2023/07/18 05:44:24;;;;;;;;;;;;;;;;;;5110984;28;19915;-70
2023/07/18 05:46:50;;;;;;;;;;;;;;;;;;5111180;28;19909;-70
2023/07/18 05:49:16;;;;;;;;;;;;;;;;;;5111113;28;19997;-69
2023/07/18 05:51:42;;;;;;;;;;;;;;;;;;5110759;28;19908;-69
2023/07/18 05:54:07;;;;;;;;;;;;;;;;;;5111069;28;19994;-69
2023/07/18 05:56:33;;;;;;;;;;;;;;;;;;5110928;28;19942;-69
2023/07/18 05:58:59;;;;;;;;;;;;;;;;;;5110625;28;19912;-69
2023/07/18 06:01:25;;;;;;;;;;;;;;;;;;5110988;28;19919;-70
2023/07/18 06:03:51;;;;;;;;;;;;;;;;;;5110860;28;19908;-69
2023/07/18 06:06:19;;;;;;;;;;;;;;;;;;5110448;28;19912;-70
2023/07/18 06:11:01;;;;;;;;;;;;;;;;;;5153139;27;19998;-70
2023/07/18 06:13:27;;;;;;;;;;;;;;;;;;5152620;27;19956;-70
2023/07/18 06:15:53;;;;;;;;;;;;;;;;;;5153214;27;19907;-70
2023/07/18 06:18:19;;;;;;;;;;;;;;;;;;5152811;27;19911;-69
2023/07/18 06:20:45;;;;;;;;;;;;;;;;;;5152275;27;19907;-69
2023/07/18 06:25:23;;;;;;;;;;;;;;;;;;5092098;27;19923;-70
2023/07/18 06:27:49;;;;;;;;;;;;;;;;;;5090943;28;19912;-70
2023/07/18 06:30:15;;;;;;;;;;;;;;;;;;5091289;28;20347;-70
2023/07/18 06:32:41;;;;;;;;;;;;;;;;;;5091413;28;19932;-70
2023/07/18 06:35:08;;;;;;;;;;;;;;;;;;5083945;28;19916;-68
2023/07/18 06:37:33;;;;;;;;;;;;;;;;;;5082514;28;19963;-67
2023/07/18 06:39:59;;;;;;;;;;;;;;;;;;5086613;28;20353;-69
2023/07/18 06:42:25;;;;;;;;;;;;;;;;;;5088948;28;19912;-68
2023/07/18 06:44:51;;;;;;;;;;;;;;;;;;5088935;28;19955;-68
2023/07/18 06:47:18;;;;;;;;;;;;;;;;;;5089645;28;19952;-68
2023/07/18 06:49:44;;;;;;;;;;;;;;;;;;5090093;28;19930;-68
2023/07/18 06:52:10;;;;;;;;;;;;;;;;;;5089292;28;19908;-68
2023/07/18 06:54:36;;;;;;;;;;;;;;;;;;5089033;28;19939;-68
2023/07/18 06:57:02;;;;;;;;;;;;;;;;;;5088453;28;20509;-68
2023/07/18 06:59:28;;;;;;;;;;;;;;;;;;5088898;28;19917;-68
2023/07/18 07:01:54;;;;;;;;;;;;;;;;;;5088117;28;20280;-68
2023/07/18 07:04:20;;;;;;;;;;;;;;;;;;5088265;28;20414;-67
2023/07/18 07:06:46;;;;;;;;;;;;;;;;;;5088423;28;19918;-68
2023/07/18 07:09:13;;;;;;;;;;;;;;;;;;5088774;28;19913;-68
2023/07/18 07:11:39;;;;;;;;;;;;;;;;;;5090455;28;19962;-68
2023/07/18 07:14:06;;;;;;;;;;;;;;;;;;5090409;28;19912;-68
2023/07/18 07:16:32;;;;;;;;;;;;;;;;;;5090043;28;20006;-67
2023/07/18 07:18:58;;;;;;;;;;;;;;;;;;5090727;28;20432;-67
2023/07/18 07:21:25;;;;;;;;;;;;;;;;;;5090384;28;19956;-66
2023/07/18 07:23:50;;;;;;;;;;;;;;;;;;5097673;28;19963;-66
2023/07/18 07:26:17;;;;;;;;;;;;;;;;;;5110693;28;19956;-66
2023/07/18 07:28:43;;;;;;;;;;;;;;;;;;5110390;28;19934;-66
2023/07/18 07:31:09;;;;;;;;;;;;;;;;;;5109357;28;19961;-68
2023/07/18 07:33:35;;;;;;;;;;;;;;;;;;5110398;28;19947;-67
2023/07/18 07:36:00;;;;;;;;;;;;;;;;;;5100799;28;20002;-68
2023/07/18 07:38:27;;;;;;;;;;;;;;;;;;5096423;28;20284;-69
2023/07/18 07:40:53;;;;;;;;;;;;;;;;;;5092499;28;20018;-67
2023/07/18 07:43:19;;;;;;;;;;;;;;;;;;5105606;28;20355;-69
2023/07/18 07:45:44;;;;;;;;;;;;;;;;;;5097538;28;20273;-68
2023/07/18 07:48:10;;;;;;;;;;;;;;;;;;5096050;28;20349;-68
2023/07/18 07:50:36;;;;;;;;;;;;;;;;;;5112848;28;20386;-69
2023/07/18 07:53:03;;;;;;;;;;;;;;;;;;5102866;28;19912;-69
2023/07/18 07:55:28;;;;;;;;;;;;;;;;;;5105304;28;20372;-69
2023/07/18 07:57:54;;;;;;;;;;;;;;;;;;5110536;28;19934;-70
2023/07/18 08:00:21;;;;;;;;;;;;;;;;;;5098877;28;19908;-68
2023/07/18 08:02:47;;;;;;;;;;;;;;;;;;5111198;28;19912;-69
2023/07/18 08:05:13;;;;;;;;;;;;;;;;;;5097956;28;20007;-69
2023/07/18 08:07:40;;;;;;;;;;;;;;;;;;5095216;28;19963;-70
2023/07/18 08:10:05;;;;;;;;;;;;;;;;;;5111623;28;19950;-69
2023/07/18 08:12:31;;;;;;;;;;;;;;;;;;5095663;28;19954;-68
2023/07/18 08:14:57;;;;;;;;;;;;;;;;;;5094703;28;19908;-69
2023/07/18 08:17:23;;;;;;;;;;;;;;;;;;5094276;28;19995;-68
2023/07/18 08:19:49;;;;;;;;;;;;;;;;;;5095352;28;20395;-67
2023/07/18 08:22:15;;;;;;;;;;;;;;;;;;5094211;28;20421;-69
2023/07/18 08:24:41;;;;;;;;;;;;;;;;;;5084884;28;20409;-68
2023/07/18 08:27:07;;;;;;;;;;;;;;;;;;5080283;28;20271;-68
2023/07/18 08:29:33;;;;;;;;;;;;;;;;;;5093037;28;20572;-67
2023/07/18 08:31:59;;;;;;;;;;;;;;;;;;5093773;28;20377;-70
2023/07/18 08:34:25;;;;;;;;;;;;;;;;;;5093492;28;20318;-70
2023/07/18 08:36:51;;;;;;;;;;;;;;;;;;5095089;28;20272;-70
2023/07/18 08:39:17;;;;;;;;;;;;;;;;;;5095506;28;19908;-68
2023/07/18 08:41:43;;;;;;;;;;;;;;;;;;5093783;28;19908;-68
2023/07/18 08:44:09;;;;;;;;;;;;;;;;;;5093282;28;20504;-69
2023/07/18 08:46:35;;;;;;;;;;;;;;;;;;5092558;28;19914;-69
2023/07/18 08:49:01;;;;;;;;;;;;;;;;;;5092656;28;20368;-69
2023/07/18 08:51:27;;;;;;;;;;;;;;;;;;5091114;28;19919;-67
2023/07/18 08:53:53;;;;;;;;;;;;;;;;;;5077157;28;19912;-68
2023/07/18 08:56:19;;;;;;;;;;;;;;;;;;5093711;28;19908;-69
2023/07/18 08:58:45;;;;;;;;;;;;;;;;;;5095171;28;19915;-69
2023/07/18 09:01:11;;;;;;;;;;;;;;;;;;5094323;28;19991;-69
2023/07/18 09:03:37;;;;;;;;;;;;;;;;;;5094258;28;19920;-69
2023/07/18 09:06:03;;;;;;;;;;;;;;;;;;5092511;28;19908;-69
2023/07/18 09:08:29;;;;;;;;;;;;;;;;;;5093116;28;19961;-69
2023/07/18 09:10:55;;;;;;;;;;;;;;;;;;5094981;28;19909;-69
2023/07/18 09:13:21;;;;;;;;;;;;;;;;;;5092311;28;19915;-69
2023/07/18 09:15:47;;;;;;;;;;;;;;;;;;5090749;28;19951;-69
2023/07/18 09:18:15;;;;;;;;;;;;;;;;;;5091291;28;19923;-69
2023/07/18 09:20:41;;;;;;;;;;;;;;;;;;5090975;28;20010;-69
2023/07/18 09:23:06;;;;;;;;;;;;;;;;;;5090804;28;19959;-69
2023/07/18 09:25:32;;;;;;;;;;;;;;;;;;5091647;28;19912;-69
2023/07/18 09:27:58;;;;;;;;;;;;;;;;;;5091762;28;19908;-68
2023/07/18 09:30:24;;;;;;;;;;;;;;;;;;5093318;28;19908;-68
2023/07/18 09:32:51;;;;;;;;;;;;;;;;;;5094062;28;19915;-68
2023/07/18 09:35:17;;;;;;;;;;;;;;;;;;5094093;28;20007;-68
2023/07/18 09:37:43;;;;;;;;;;;;;;;;;;5093726;28;20271;-68
2023/07/18 09:40:09;;;;;;;;;;;;;;;;;;5094238;28;19916;-68
2023/07/18 09:42:35;;;;;;;;;;;;;;;;;;5094521;28;19945;-68
2023/07/18 09:45:01;;;;;;;;;;;;;;;;;;5094049;28;20288;-68
2023/07/18 09:47:27;;;;;;;;;;;;;;;;;;5094642;28;20349;-68
2023/07/18 09:49:53;;;;;;;;;;;;;;;;;;5094444;28;19999;-68
2023/07/18 09:52:19;;;;;;;;;;;;;;;;;;5093865;28;19908;-68
2023/07/18 09:54:45;;;;;;;;;;;;;;;;;;5094137;28;19908;-68
2023/07/18 09:57:11;;;;;;;;;;;;;;;;;;5094245;28;19908;-68
2023/07/18 09:59:40;;;;;;;;;;;;;;;;;;5093524;28;19916;-68
2023/07/18 10:02:06;;;;;;;;;;;;;;;;;;5094131;28;20392;-68
2023/07/18 10:04:32;;;;;;;;;;;;;;;;;;5094305;28;19973;-68
2023/07/18 10:06:58;;;;;;;;;;;;;;;;;;5093763;28;19916;-68
2023/07/18 10:09:26;;;;;;;;;;;;;;;;;;5094205;28;20360;-68
2023/07/18 10:11:51;;;;;;;;;;;;;;;;;;5093599;28;19915;-68
2023/07/18 10:14:17;;;;;;;;;;;;;;;;;;5094040;28;20283;-69
2023/07/18 10:16:43;;;;;;;;;;;;;;;;;;5094495;28;20248;-68
2023/07/18 10:19:09;;;;;;;;;;;;;;;;;;5093817;28;19919;-69
2023/07/18 10:21:35;;;;;;;;;;;;;;;;;;5093907;28;20413;-67
2023/07/18 10:24:01;;;;;;;;;;;;;;;;;;5093828;28;19927;-67
2023/07/18 10:26:27;;;;;;;;;;;;;;;;;;5093411;28;19961;-67
2023/07/18 10:28:53;;;;;;;;;;;;;;;;;;5093919;28;19915;-67
2023/07/18 10:31:19;;;;;;;;;;;;;;;;;;5093831;28;19909;-69
2023/07/18 10:33:45;;;;;;;;;;;;;;;;;;5093362;28;19908;-68
2023/07/18 10:36:11;;;;;;;;;;;;;;;;;;5093752;28;19908;-68
2023/07/18 10:38:37;;;;;;;;;;;;;;;;;;5093803;28;19961;-68
2023/07/18 10:41:03;;;;;;;;;;;;;;;;;;5093466;28;19944;-68
2023/07/18 10:43:29;;;;;;;;;;;;;;;;;;5093657;28;19916;-68
2023/07/18 10:45:55;;;;;;;;;;;;;;;;;;5093808;28;20002;-68
2023/07/18 10:48:21;;;;;;;;;;;;;;;;;;5093335;28;19947;-68
2023/07/18 10:50:47;;;;;;;;;;;;;;;;;;5093690;28;19911;-68
2023/07/18 10:53:13;;;;;;;;;;;;;;;;;;5093679;28;19917;-68
2023/07/18 10:55:39;;;;;;;;;;;;;;;;;;5093237;28;19912;-68
2023/07/18 10:58:05;;;;;;;;;;;;;;;;;;5093645;28;19908;-68
2023/07/18 11:00:31;;;;;;;;;;;;;;;;;;5093548;28;19916;-68
2023/07/18 11:02:57;;;;;;;;;;;;;;;;;;5093112;28;19908;-69
2023/07/18 11:05:23;;;;;;;;;;;;;;;;;;5093896;28;19945;-68
2023/07/18 11:07:49;;;;;;;;;;;;;;;;;;5093493;28;19915;-67
2023/07/18 11:10:15;;;;;;;;;;;;;;;;;;5093834;28;19915;-68
2023/07/18 11:12:40;;;;;;;;;;;;;;;;;;5097334;28;20002;-67
2023/07/18 11:15:06;;;;;;;;;;;;;;;;;;5097006;28;19909;-68
2023/07/18 11:17:32;;;;;;;;;;;;;;;;;;5097365;28;19912;-67
2023/07/18 11:19:58;;;;;;;;;;;;;;;;;;5097178;28;19986;-67
2023/07/18 11:22:24;;;;;;;;;;;;;;;;;;5078636;28;19908;-67
2023/07/18 11:24:51;;;;;;;;;;;;;;;;;;5096713;28;19920;-67
2023/07/18 11:27:17;;;;;;;;;;;;;;;;;;5097262;28;19909;-67
2023/07/18 11:29:43;;;;;;;;;;;;;;;;;;5096898;28;19908;-67
2023/07/18 11:32:10;;;;;;;;;;;;;;;;;;5096869;28;19919;-67
2023/07/18 11:34:35;;;;;;;;;;;;;;;;;;5096962;28;19947;-67
2023/07/18 11:37:01;;;;;;;;;;;;;;;;;;5096522;28;19946;-67
2023/07/18 11:39:28;;;;;;;;;;;;;;;;;;5096690;28;19908;-68
2023/07/18 11:41:54;;;;;;;;;;;;;;;;;;5096800;28;19908;-68
2023/07/18 11:44:20;;;;;;;;;;;;;;;;;;5096611;28;20280;-67
2023/07/18 11:46:46;;;;;;;;;;;;;;;;;;5096574;28;19954;-68
2023/07/18 11:49:16;;;;;;;;;;;;;;;;;;5096650;28;19918;-68
2023/07/18 11:51:42;;;;;;;;;;;;;;;;;;5096303;28;19968;-68
2023/07/18 11:54:08;;;;;;;;;;;;;;;;;;5096553;28;20018;-67
2023/07/18 11:56:34;;;;;;;;;;;;;;;;;;5096968;28;19948;-67
2023/07/18 11:59:00;;;;;;;;;;;;;;;;;;5096081;28;20364;-68
2023/07/18 12:01:26;;;;;;;;;;;;;;;;;;5097757;28;19915;-68
2023/07/18 12:03:52;;;;;;;;;;;;;;;;;;5096520;28;20018;-67
2023/07/18 12:06:18;;;;;;;;;;;;;;;;;;5096183;28;19908;-69
2023/07/18 12:08:44;;;;;;;;;;;;;;;;;;5096701;28;20352;-66
2023/07/18 12:11:10;;;;;;;;;;;;;;;;;;5096535;28;19908;-68
2023/07/18 12:13:36;;;;;;;;;;;;;;;;;;5095856;28;19955;-68
2023/07/18 12:16:02;;;;;;;;;;;;;;;;;;5096136;28;19912;-68
2023/07/18 12:18:28;;;;;;;;;;;;;;;;;;5095643;28;19915;-69
2023/07/18 12:20:54;;;;;;;;;;;;;;;;;;5096096;28;19943;-67
2023/07/18 12:23:19;;;;;;;;;;;;;;;;;;5096028;28;19915;-68
2023/07/18 12:25:47;;;;;;;;;;;;;;;;;;5095326;28;19912;-67
2023/07/18 12:28:13;;;;;;;;;;;;;;;;;;5095857;28;19937;-67
2023/07/18 12:30:38;;;;;;;;;;;;;;;;;;5095800;28;20383;-67
2023/07/18 12:33:04;;;;;;;;;;;;;;;;;;5095412;28;19991;-67
2023/07/18 12:35:30;;;;;;;;;;;;;;;;;;5095859;28;20368;-68
2023/07/18 12:37:56;;;;;;;;;;;;;;;;;;5095735;28;20006;-67
2023/07/18 12:40:22;;;;;;;;;;;;;;;;;;5095247;28;19912;-68
2023/07/18 12:42:48;;;;;;;;;;;;;;;;;;5095652;28;19915;-68
2023/07/18 12:45:14;;;;;;;;;;;;;;;;;;5095468;28;19916;-67
2023/07/18 12:47:40;;;;;;;;;;;;;;;;;;5095052;28;19908;-68
2023/07/18 12:50:06;;;;;;;;;;;;;;;;;;5095746;28;19961;-68
2023/07/18 12:52:32;;;;;;;;;;;;;;;;;;5095447;28;20318;-68
2023/07/18 12:54:58;;;;;;;;;;;;;;;;;;5095003;28;19908;-67
2023/07/18 12:57:24;;;;;;;;;;;;;;;;;;5095288;28;19908;-67
2023/07/18 12:59:50;;;;;;;;;;;;;;;;;;5095363;28;19999;-67
2023/07/18 13:02:16;;;;;;;;;;;;;;;;;;5094938;28;20011;-68
2023/07/18 13:04:42;;;;;;;;;;;;;;;;;;5095268;28;19920;-67
2023/07/18 13:07:08;;;;;;;;;;;;;;;;;;5095228;28;19961;-67
2023/07/18 13:09:34;;;;;;;;;;;;;;;;;;5094777;28;20379;-67
2023/07/18 13:12:00;;;;;;;;;;;;;;;;;;5095023;28;19908;-67
2023/07/18 13:14:26;;;;;;;;;;;;;;;;;;5095020;28;19908;-66
2023/07/18 13:16:52;;;;;;;;;;;;;;;;;;5094581;28;19912;-67
2023/07/18 13:19:18;;;;;;;;;;;;;;;;;;5094998;28;19908;-66
2023/07/18 13:21:44;;;;;;;;;;;;;;;;;;5094659;28;19909;-67
2023/07/18 13:24:11;;;;;;;;;;;;;;;;;;5094478;28;20331;-67
2023/07/18 13:26:36;;;;;;;;;;;;;;;;;;5076642;28;19908;-68
2023/07/18 13:29:03;;;;;;;;;;;;;;;;;;5093993;28;19966;-67
2023/07/18 13:31:29;;;;;;;;;;;;;;;;;;5094697;28;20311;-68
2023/07/18 13:33:55;;;;;;;;;;;;;;;;;;5094267;28;19908;-69
2023/07/18 13:36:21;;;;;;;;;;;;;;;;;;5094279;28;19908;-67
2023/07/18 13:38:47;;;;;;;;;;;;;;;;;;5094531;28;20007;-68
2023/07/18 13:41:13;;;;;;;;;;;;;;;;;;5094410;28;19969;-66
2023/07/18 13:43:39;;;;;;;;;;;;;;;;;;5094329;28;19912;-68
2023/07/18 13:46:05;;;;;;;;;;;;;;;;;;5094390;28;20383;-69
2023/07/18 13:48:32;;;;;;;;;;;;;;;;;;5094363;28;19908;-69
2023/07/18 13:50:57;;;;;;;;;;;;;;;;;;5093860;28;19908;-69
2023/07/18 13:53:24;;;;;;;;;;;;;;;;;;5094186;28;19931;-65
2023/07/18 13:55:49;;;;;;;;;;;;;;;;;;5094229;28;19954;-66
2023/07/18 13:58:15;;;;;;;;;;;;;;;;;;5093787;28;19908;-69
2023/07/18 14:00:42;;;;;;;;;;;;;;;;;;5094123;28;19908;-70
2023/07/18 14:03:07;;;;;;;;;;;;;;;;;;5094096;28;19943;-66
2023/07/18 14:05:34;;;;;;;;;;;;;;;;;;5093719;28;20045;-67
2023/07/18 14:08:01;;;;;;;;;;;;;;;;;;5094043;28;19987;-66
2023/07/18 14:10:27;;;;;;;;;;;;;;;;;;5094127;28;19908;-66
2023/07/18 14:12:53;;;;;;;;;;;;;;;;;;5093796;28;19954;-68
2023/07/18 14:15:19;;;;;;;;;;;;;;;;;;5094171;28;19954;-68
2023/07/18 14:17:45;;;;;;;;;;;;;;;;;;5093837;28;19960;-69
2023/07/18 14:20:12;;;;;;;;;;;;;;;;;;5093542;28;19908;-69
2023/07/18 14:22:38;;;;;;;;;;;;;;;;;;5093909;28;19947;-68
2023/07/18 14:25:04;;;;;;;;;;;;;;;;;;5093233;28;19967;-68
2023/07/18 14:27:30;;;;;;;;;;;;;;;;;;5093748;28;19915;-68
2023/07/18 14:29:55;;;;;;;;;;;;;;;;;;5093783;28;19908;-68
2023/07/18 14:32:21;;;;;;;;;;;;;;;;;;5093407;28;19918;-68
2023/07/18 14:34:48;;;;;;;;;;;;;;;;;;5093832;28;19998;-66
2023/07/18 14:37:14;;;;;;;;;;;;;;;;;;5093742;28;19916;-69
2023/07/18 14:39:40;;;;;;;;;;;;;;;;;;5093444;28;19908;-69
2023/07/18 14:42:06;;;;;;;;;;;;;;;;;;5093765;28;19934;-69
2023/07/18 14:44:32;;;;;;;;;;;;;;;;;;5094197;28;20426;-67
2023/07/18 14:46:58;;;;;;;;;;;;;;;;;;5096994;28;19908;-67
2023/07/18 14:49:24;;;;;;;;;;;;;;;;;;5097787;28;19983;-67
2023/07/18 14:51:50;;;;;;;;;;;;;;;;;;5079530;28;20003;-67
2023/07/18 14:54:16;;;;;;;;;;;;;;;;;;5097433;28;19915;-67
2023/07/18 14:56:42;;;;;;;;;;;;;;;;;;5097693;28;19919;-67
2023/07/18 14:59:08;;;;;;;;;;;;;;;;;;5097580;28;19908;-67
2023/07/18 15:01:34;;;;;;;;;;;;;;;;;;5097098;28;19999;-67
2023/07/18 15:04:00;;;;;;;;;;;;;;;;;;5097658;28;20011;-68
2023/07/18 15:06:26;;;;;;;;;;;;;;;;;;5097518;28;19962;-67
2023/07/18 15:08:52;;;;;;;;;;;;;;;;;;5097075;28;19912;-67
2023/07/18 15:11:18;;;;;;;;;;;;;;;;;;5097444;28;19999;-67
2023/07/18 15:13:44;;;;;;;;;;;;;;;;;;5097255;28;19912;-67
2023/07/18 15:16:10;;;;;;;;;;;;;;;;;;5096944;28;19915;-67
2023/07/18 15:18:36;;;;;;;;;;;;;;;;;;5097183;28;20310;-67
2023/07/18 15:21:03;;;;;;;;;;;;;;;;;;5097185;28;19934;-67
2023/07/18 15:23:29;;;;;;;;;;;;;;;;;;5096332;28;19916;-66
2023/07/18 15:25:55;;;;;;;;;;;;;;;;;;5097095;28;20417;-67
2023/07/18 15:28:21;;;;;;;;;;;;;;;;;;5096548;28;20371;-68
2023/07/18 15:30:46;;;;;;;;;;;;;;;;;;5096834;28;19998;-66
2023/07/18 15:33:12;;;;;;;;;;;;;;;;;;5096880;28;19919;-67
2023/07/18 15:35:39;;;;;;;;;;;;;;;;;;5096449;28;19915;-67
2023/07/18 15:38:05;;;;;;;;;;;;;;;;;;5096889;28;20276;-66
2023/07/18 15:40:31;;;;;;;;;;;;;;;;;;5096668;28;19908;-66
2023/07/18 15:42:57;;;;;;;;;;;;;;;;;;5096339;28;20272;-67
2023/07/18 15:45:23;;;;;;;;;;;;;;;;;;5096657;28;19927;-66
2023/07/18 15:47:49;;;;;;;;;;;;;;;;;;5096509;28;19908;-67
2023/07/18 15:50:14;;;;;;;;;;;;;;;;;;5096150;28;19914;-67
2023/07/18 15:52:40;;;;;;;;;;;;;;;;;;5096484;28;19962;-68
2023/07/18 15:55:07;;;;;;;;;;;;;;;;;;5096449;28;19908;-67
2023/07/18 15:57:33;;;;;;;;;;;;;;;;;;5095683;28;19912;-67
2023/07/18 15:59:59;;;;;;;;;;;;;;;;;;5096456;28;19915;-67
2023/07/18 16:02:25;;;;;;;;;;;;;;;;;;5096392;28;19908;-67
2023/07/18 16:04:51;;;;;;;;;;;;;;;;;;5096213;28;19923;-67
2023/07/18 16:07:17;;;;;;;;;;;;;;;;;;5096404;28;19908;-67
2023/07/18 16:09:42;;;;;;;;;;;;;;;;;;5096389;28;19912;-67
2023/07/18 16:12:08;;;;;;;;;;;;;;;;;;5095814;28;20355;-67
2023/07/18 16:14:34;;;;;;;;;;;;;;;;;;5078822;28;19908;-67
2023/07/18 16:17:00;;;;;;;;;;;;;;;;;;5096369;28;19915;-67
2023/07/18 16:19:26;;;;;;;;;;;;;;;;;;5095712;28;20312;-67
2023/07/18 16:21:52;;;;;;;;;;;;;;;;;;5096020;28;20395;-67
2023/07/18 16:24:18;;;;;;;;;;;;;;;;;;5095866;28;19920;-67
2023/07/18 16:26:44;;;;;;;;;;;;;;;;;;5095524;28;19908;-67
2023/07/18 16:29:10;;;;;;;;;;;;;;;;;;5095873;28;19914;-67
2023/07/18 16:31:36;;;;;;;;;;;;;;;;;;5095410;28;19915;-67
2023/07/18 16:34:02;;;;;;;;;;;;;;;;;;5095795;28;19912;-67
2023/07/18 16:36:28;;;;;;;;;;;;;;;;;;5095711;28;19991;-68
2023/07/18 16:38:54;;;;;;;;;;;;;;;;;;5095392;28;19915;-68
2023/07/18 16:41:20;;;;;;;;;;;;;;;;;;5095737;28;20321;-68
2023/07/18 16:43:46;;;;;;;;;;;;;;;;;;5095608;28;20023;-68
2023/07/18 16:46:12;;;;;;;;;;;;;;;;;;5095167;28;19912;-68
2023/07/18 16:48:38;;;;;;;;;;;;;;;;;;5095479;28;19930;-68
2023/07/18 16:51:04;;;;;;;;;;;;;;;;;;5095458;28;19908;-67
2023/07/18 16:53:30;;;;;;;;;;;;;;;;;;5094985;28;19908;-68
2023/07/18 16:55:56;;;;;;;;;;;;;;;;;;5095352;28;19974;-68
2023/07/18 16:58:22;;;;;;;;;;;;;;;;;;5095318;28;19915;-68
2023/07/18 17:00:48;;;;;;;;;;;;;;;;;;5076734;28;19959;-68
2023/07/18 17:03:14;;;;;;;;;;;;;;;;;;5095109;28;19961;-68
2023/07/18 17:05:40;;;;;;;;;;;;;;;;;;5095167;28;19920;-68
2023/07/18 17:08:06;;;;;;;;;;;;;;;;;;5093923;28;19908;-68
2023/07/18 17:10:32;;;;;;;;;;;;;;;;;;5095116;28;19912;-68
2023/07/18 17:12:58;;;;;;;;;;;;;;;;;;5095013;28;19908;-68
2023/07/18 17:15:24;;;;;;;;;;;;;;;;;;5094668;28;19934;-68
2023/07/18 17:17:50;;;;;;;;;;;;;;;;;;5094879;28;20387;-68
2023/07/18 17:20:16;;;;;;;;;;;;;;;;;;5094872;28;19908;-68
2023/07/18 17:22:42;;;;;;;;;;;;;;;;;;5076251;28;19928;-67
2023/07/18 17:25:08;;;;;;;;;;;;;;;;;;5094324;28;19927;-68